sensor_id;sensor_type;location;lat;lon;timestamp;temperature;humidity
12977;DHT22;6553;48.412;9.514;2022-09-17T00:01:05;20.90;68.80
12977;DHT22;6553;48.412;9.514;2022-09-17T00:03:33;20.90;68.70
12977;DHT22;6553;48.412;9.514;2022-09-17T00:06:04;20.90;68.60
12977;DHT22;6553;48.412;9.514;2022-09-17T00:08:34;20.90;68.60
12977;DHT22;6553;48.412;9.514;2022-09-17T00:11:24;20.90;68.60
12977;DHT22;6553;48.412;9.514;2022-09-17T00:13:52;20.90;68.60
12977;DHT22;6553;48.412;9.514;2022-09-17T00:16:35;20.90;68.50
12977;DHT22;6553;48.412;9.514;2022-09-17T00:19:05;20.90;68.60
12977;DHT22;6553;48.412;9.514;2022-09-17T00:21:33;20.90;68.60
12977;DHT22;6553;48.412;9.514;2022-09-17T00:24:02;20.90;68.60
12977;DHT22;6553;48.412;9.514;2022-09-17T00:26:31;20.90;68.60
12977;DHT22;6553;48.412;9.514;2022-09-17T00:28:59;20.90;68.60
12977;DHT22;6553;48.412;9.514;2022-09-17T00:31:27;20.80;68.20
12977;DHT22;6553;48.412;9.514;2022-09-17T00:33:53;20.90;68.40
12977;DHT22;6553;48.412;9.514;2022-09-17T00:36:20;20.80;68.30
12977;DHT22;6553;48.412;9.514;2022-09-17T00:38:51;20.80;68.20
12977;DHT22;6553;48.412;9.514;2022-09-17T00:41:19;20.90;68.40
12977;DHT22;6553;48.412;9.514;2022-09-17T00:43:49;20.90;68.40
12977;DHT22;6553;48.412;9.514;2022-09-17T00:46:24;20.80;68.30
12977;DHT22;6553;48.412;9.514;2022-09-17T00:49:45;20.90;68.50
12977;DHT22;6553;48.412;9.514;2022-09-17T00:52:08;20.80;68.40
12977;DHT22;6553;48.412;9.514;2022-09-17T00:54:39;20.80;68.30
12977;DHT22;6553;48.412;9.514;2022-09-17T00:57:08;20.80;68.20
12977;DHT22;6553;48.412;9.514;2022-09-17T00:59:34;20.80;68.20
12977;DHT22;6553;48.412;9.514;2022-09-17T01:02:01;20.80;68.30
12977;DHT22;6553;48.412;9.514;2022-09-17T01:04:27;20.90;68.40
12977;DHT22;6553;48.412;9.514;2022-09-17T01:09:57;20.80;68.20
12977;DHT22;6553;48.412;9.514;2022-09-17T01:12:55;20.80;68.10
12977;DHT22;6553;48.412;9.514;2022-09-17T01:15:35;20.90;68.30
12977;DHT22;6553;48.412;9.514;2022-09-17T01:21:26;20.80;68.00
12977;DHT22;6553;48.412;9.514;2022-09-17T01:27:27;20.80;68.10
12977;DHT22;6553;48.412;9.514;2022-09-17T01:33:18;20.80;68.10
12977;DHT22;6553;48.412;9.514;2022-09-17T01:48:05;20.80;68.20
12977;DHT22;6553;48.412;9.514;2022-09-17T01:50:32;20.80;68.00
12977;DHT22;6553;48.412;9.514;2022-09-17T01:53:04;20.80;68.10
12977;DHT22;6553;48.412;9.514;2022-09-17T01:55:35;20.80;68.00
12977;DHT22;6553;48.412;9.514;2022-09-17T01:58:22;20.80;68.00
12977;DHT22;6553;48.412;9.514;2022-09-17T02:00:59;20.80;67.90
12977;DHT22;6553;48.412;9.514;2022-09-17T02:03:35;20.80;68.10
12977;DHT22;6553;48.412;9.514;2022-09-17T02:06:18;20.80;68.00
12977;DHT22;6553;48.412;9.514;2022-09-17T02:09:03;20.80;68.00
12977;DHT22;6553;48.412;9.514;2022-09-17T02:11:34;20.80;68.00
12977;DHT22;6553;48.412;9.514;2022-09-17T02:14:14;20.80;67.80
12977;DHT22;6553;48.412;9.514;2022-09-17T02:16:49;20.80;68.10
12977;DHT22;6553;48.412;9.514;2022-09-17T02:19:33;20.80;67.80
12977;DHT22;6553;48.412;9.514;2022-09-17T02:25:27;20.80;68.00
12977;DHT22;6553;48.412;9.514;2022-09-17T02:30:59;20.80;68.00
12977;DHT22;6553;48.412;9.514;2022-09-17T02:33:26;20.80;67.80
12977;DHT22;6553;48.412;9.514;2022-09-17T02:35:54;20.80;67.80
12977;DHT22;6553;48.412;9.514;2022-09-17T02:38:23;20.80;67.80
12977;DHT22;6553;48.412;9.514;2022-09-17T02:41:01;20.80;67.90
12977;DHT22;6553;48.412;9.514;2022-09-17T02:46:47;20.80;67.80
12977;DHT22;6553;48.412;9.514;2022-09-17T02:59:14;20.80;67.80
12977;DHT22;6553;48.412;9.514;2022-09-17T03:02:01;20.80;67.80
12977;DHT22;6553;48.412;9.514;2022-09-17T03:04:33;20.80;67.80
12977;DHT22;6553;48.412;9.514;2022-09-17T03:07:06;20.80;67.80
12977;DHT22;6553;48.412;9.514;2022-09-17T03:09:34;20.70;67.70
12977;DHT22;6553;48.412;9.514;2022-09-17T03:12:00;20.70;67.70
12977;DHT22;6553;48.412;9.514;2022-09-17T03:14:27;20.70;67.70
12977;DHT22;6553;48.412;9.514;2022-09-17T03:16:52;20.70;67.70
12977;DHT22;6553;48.412;9.514;2022-09-17T03:19:18;20.70;67.70
12977;DHT22;6553;48.412;9.514;2022-09-17T03:21:44;20.70;67.80
12977;DHT22;6553;48.412;9.514;2022-09-17T03:24:10;20.70;67.70
12977;DHT22;6553;48.412;9.514;2022-09-17T03:26:37;20.70;67.70
12977;DHT22;6553;48.412;9.514;2022-09-17T03:29:04;20.70;67.70
12977;DHT22;6553;48.412;9.514;2022-09-17T03:31:29;20.80;67.80
12977;DHT22;6553;48.412;9.514;2022-09-17T03:33:55;20.80;67.80
12977;DHT22;6553;48.412;9.514;2022-09-17T03:36:21;20.70;67.70
12977;DHT22;6553;48.412;9.514;2022-09-17T03:38:47;20.70;67.70
12977;DHT22;6553;48.412;9.514;2022-09-17T03:41:12;20.70;67.70
12977;DHT22;6553;48.412;9.514;2022-09-17T03:43:38;20.70;67.80
12977;DHT22;6553;48.412;9.514;2022-09-17T03:46:04;20.70;67.70
12977;DHT22;6553;48.412;9.514;2022-09-17T03:48:31;20.70;67.70
12977;DHT22;6553;48.412;9.514;2022-09-17T03:50:59;20.70;68.50
12977;DHT22;6553;48.412;9.514;2022-09-17T03:53:25;20.70;67.70
12977;DHT22;6553;48.412;9.514;2022-09-17T03:55:51;20.70;67.70
12977;DHT22;6553;48.412;9.514;2022-09-17T03:58:17;20.70;67.70
12977;DHT22;6553;48.412;9.514;2022-09-17T04:00:43;20.70;67.60
12977;DHT22;6553;48.412;9.514;2022-09-17T04:03:09;20.70;67.70
12977;DHT22;6553;48.412;9.514;2022-09-17T04:05:35;20.70;67.70
12977;DHT22;6553;48.412;9.514;2022-09-17T04:08:01;20.70;67.70
12977;DHT22;6553;48.412;9.514;2022-09-17T04:10:27;20.70;67.70
12977;DHT22;6553;48.412;9.514;2022-09-17T04:12:53;20.70;67.70
12977;DHT22;6553;48.412;9.514;2022-09-17T04:15:19;20.70;67.80
12977;DHT22;6553;48.412;9.514;2022-09-17T04:17:45;20.70;67.70
12977;DHT22;6553;48.412;9.514;2022-09-17T04:20:10;20.70;67.70
12977;DHT22;6553;48.412;9.514;2022-09-17T04:22:36;20.70;67.50
12977;DHT22;6553;48.412;9.514;2022-09-17T04:25:02;20.70;67.60
12977;DHT22;6553;48.412;9.514;2022-09-17T04:27:28;20.70;67.60
12977;DHT22;6553;48.412;9.514;2022-09-17T04:29:53;20.70;67.70
12977;DHT22;6553;48.412;9.514;2022-09-17T04:32:19;20.70;67.90
12977;DHT22;6553;48.412;9.514;2022-09-17T04:34:45;20.70;67.70
12977;DHT22;6553;48.412;9.514;2022-09-17T04:37:10;20.70;67.70
12977;DHT22;6553;48.412;9.514;2022-09-17T04:39:36;20.70;67.60
12977;DHT22;6553;48.412;9.514;2022-09-17T04:42:02;20.70;67.70
12977;DHT22;6553;48.412;9.514;2022-09-17T04:44:28;20.70;68.50
12977;DHT22;6553;48.412;9.514;2022-09-17T04:46:54;20.60;67.60
12977;DHT22;6553;48.412;9.514;2022-09-17T04:49:20;20.70;67.60
12977;DHT22;6553;48.412;9.514;2022-09-17T04:51:46;20.70;67.70
12977;DHT22;6553;48.412;9.514;2022-09-17T04:54:12;20.70;67.60
12977;DHT22;6553;48.412;9.514;2022-09-17T04:56:39;20.70;67.60
12977;DHT22;6553;48.412;9.514;2022-09-17T04:59:04;20.60;67.40
12977;DHT22;6553;48.412;9.514;2022-09-17T05:01:30;20.70;67.60
12977;DHT22;6553;48.412;9.514;2022-09-17T05:03:56;20.60;67.50
12977;DHT22;6553;48.412;9.514;2022-09-17T05:06:21;20.70;67.70
12977;DHT22;6553;48.412;9.514;2022-09-17T05:08:47;20.70;67.70
12977;DHT22;6553;48.412;9.514;2022-09-17T05:11:13;20.60;67.50
12977;DHT22;6553;48.412;9.514;2022-09-17T05:13:39;20.60;67.40
12977;DHT22;6553;48.412;9.514;2022-09-17T05:16:04;20.60;67.40
12977;DHT22;6553;48.412;9.514;2022-09-17T05:18:30;20.70;67.60
12977;DHT22;6553;48.412;9.514;2022-09-17T05:20:56;20.60;67.50
12977;DHT22;6553;48.412;9.514;2022-09-17T05:23:22;20.60;67.50
12977;DHT22;6553;48.412;9.514;2022-09-17T05:25:47;20.60;67.60
12977;DHT22;6553;48.412;9.514;2022-09-17T05:28:13;20.70;67.70
12977;DHT22;6553;48.412;9.514;2022-09-17T05:30:39;20.60;67.40
12977;DHT22;6553;48.412;9.514;2022-09-17T05:33:06;20.70;67.70
12977;DHT22;6553;48.412;9.514;2022-09-17T05:35:32;20.60;67.60
12977;DHT22;6553;48.412;9.514;2022-09-17T05:38:02;20.60;67.60
12977;DHT22;6553;48.412;9.514;2022-09-17T05:40:30;20.60;67.50
12977;DHT22;6553;48.412;9.514;2022-09-17T05:43:01;20.60;67.60
12977;DHT22;6553;48.412;9.514;2022-09-17T05:45:29;20.60;67.50
12977;DHT22;6553;48.412;9.514;2022-09-17T05:47:56;20.70;67.30
12977;DHT22;6553;48.412;9.514;2022-09-17T05:50:23;20.60;67.10
12977;DHT22;6553;48.412;9.514;2022-09-17T05:52:52;20.60;67.40
12977;DHT22;6553;48.412;9.514;2022-09-17T05:55:20;20.60;67.10
12977;DHT22;6553;48.412;9.514;2022-09-17T05:57:47;20.60;67.00
12977;DHT22;6553;48.412;9.514;2022-09-17T06:00:16;20.60;66.80
12977;DHT22;6553;48.412;9.514;2022-09-17T06:02:42;20.60;67.00
12977;DHT22;6553;48.412;9.514;2022-09-17T06:09:14;20.60;67.20
12977;DHT22;6553;48.412;9.514;2022-09-17T06:11:40;20.60;66.90
12977;DHT22;6553;48.412;9.514;2022-09-17T06:14:07;20.60;67.00
12977;DHT22;6553;48.412;9.514;2022-09-17T06:16:34;20.60;67.00
12977;DHT22;6553;48.412;9.514;2022-09-17T06:19:00;20.60;67.80
12977;DHT22;6553;48.412;9.514;2022-09-17T06:21:26;20.60;67.00
12977;DHT22;6553;48.412;9.514;2022-09-17T06:23:52;20.60;67.20
12977;DHT22;6553;48.412;9.514;2022-09-17T06:26:18;20.60;67.00
12977;DHT22;6553;48.412;9.514;2022-09-17T06:28:44;20.60;67.00
12977;DHT22;6553;48.412;9.514;2022-09-17T06:31:11;20.60;67.00
12977;DHT22;6553;48.412;9.514;2022-09-17T06:33:37;20.60;67.00
12977;DHT22;6553;48.412;9.514;2022-09-17T06:36:10;20.60;67.00
12977;DHT22;6553;48.412;9.514;2022-09-17T06:38:37;20.60;66.70
12977;DHT22;6553;48.412;9.514;2022-09-17T06:41:03;20.60;66.90
12977;DHT22;6553;48.412;9.514;2022-09-17T06:43:29;20.60;66.90
12977;DHT22;6553;48.412;9.514;2022-09-17T06:46:00;20.60;67.00
12977;DHT22;6553;48.412;9.514;2022-09-17T06:48:28;20.60;66.90
12977;DHT22;6553;48.412;9.514;2022-09-17T06:50:55;20.60;66.90
12977;DHT22;6553;48.412;9.514;2022-09-17T06:53:26;20.60;66.80
12977;DHT22;6553;48.412;9.514;2022-09-17T06:55:56;20.60;66.70
12977;DHT22;6553;48.412;9.514;2022-09-17T06:58:23;20.60;66.70
12977;DHT22;6553;48.412;9.514;2022-09-17T07:00:50;20.60;66.50
12977;DHT22;6553;48.412;9.514;2022-09-17T07:03:18;20.60;66.70
12977;DHT22;6553;48.412;9.514;2022-09-17T07:05:47;20.60;66.80
12977;DHT22;6553;48.412;9.514;2022-09-17T07:08:13;20.60;66.70
12977;DHT22;6553;48.412;9.514;2022-09-17T07:10:39;20.60;66.90
12977;DHT22;6553;48.412;9.514;2022-09-17T07:13:04;20.60;66.80
12977;DHT22;6553;48.412;9.514;2022-09-17T07:15:30;20.60;66.70
12977;DHT22;6553;48.412;9.514;2022-09-17T07:17:56;20.60;66.80
12977;DHT22;6553;48.412;9.514;2022-09-17T07:20:23;20.60;67.00
12977;DHT22;6553;48.412;9.514;2022-09-17T07:22:56;20.60;66.70
12977;DHT22;6553;48.412;9.514;2022-09-17T07:25:24;20.60;66.90
12977;DHT22;6553;48.412;9.514;2022-09-17T07:27:51;20.60;66.90
12977;DHT22;6553;48.412;9.514;2022-09-17T07:30:17;20.60;66.70
12977;DHT22;6553;48.412;9.514;2022-09-17T07:32:44;20.60;66.90
12977;DHT22;6553;48.412;9.514;2022-09-17T07:35:10;20.60;66.70
12977;DHT22;6553;48.412;9.514;2022-09-17T07:37:36;20.60;66.60
12977;DHT22;6553;48.412;9.514;2022-09-17T07:40:03;20.60;66.60
12977;DHT22;6553;48.412;9.514;2022-09-17T07:42:31;20.60;66.60
12977;DHT22;6553;48.412;9.514;2022-09-17T07:44:57;20.60;66.60
12977;DHT22;6553;48.412;9.514;2022-09-17T07:47:23;20.60;66.60
12977;DHT22;6553;48.412;9.514;2022-09-17T07:49:49;20.60;66.60
12977;DHT22;6553;48.412;9.514;2022-09-17T07:52:14;20.60;66.70
12977;DHT22;6553;48.412;9.514;2022-09-17T07:54:40;20.60;66.50
12977;DHT22;6553;48.412;9.514;2022-09-17T07:57:07;20.60;66.80
12977;DHT22;6553;48.412;9.514;2022-09-17T07:59:32;20.60;66.70
12977;DHT22;6553;48.412;9.514;2022-09-17T08:01:58;20.60;66.60
12977;DHT22;6553;48.412;9.514;2022-09-17T08:04:24;20.60;66.50
12977;DHT22;6553;48.412;9.514;2022-09-17T08:06:50;20.60;66.80
12977;DHT22;6553;48.412;9.514;2022-09-17T08:09:16;20.60;66.70
12977;DHT22;6553;48.412;9.514;2022-09-17T08:11:43;20.60;66.60
12977;DHT22;6553;48.412;9.514;2022-09-17T08:14:11;20.60;66.60
12977;DHT22;6553;48.412;9.514;2022-09-17T08:16:38;20.60;66.60
12977;DHT22;6553;48.412;9.514;2022-09-17T08:19:04;20.60;66.80
12977;DHT22;6553;48.412;9.514;2022-09-17T08:21:31;20.50;66.50
12977;DHT22;6553;48.412;9.514;2022-09-17T08:23:57;20.50;66.50
12977;DHT22;6553;48.412;9.514;2022-09-17T08:26:23;20.60;66.70
12977;DHT22;6553;48.412;9.514;2022-09-17T08:28:53;20.60;66.60
12977;DHT22;6553;48.412;9.514;2022-09-17T08:31:22;20.60;66.50
12977;DHT22;6553;48.412;9.514;2022-09-17T08:33:49;20.60;66.40
12977;DHT22;6553;48.412;9.514;2022-09-17T08:36:17;20.60;66.50
12977;DHT22;6553;48.412;9.514;2022-09-17T08:38:43;20.60;66.40
12977;DHT22;6553;48.412;9.514;2022-09-17T08:46:46;20.60;66.40
12977;DHT22;6553;48.412;9.514;2022-09-17T08:49:25;20.60;66.30
12977;DHT22;6553;48.412;9.514;2022-09-17T08:55:06;20.60;66.40
12977;DHT22;6553;48.412;9.514;2022-09-17T08:57:54;20.60;66.40
12977;DHT22;6553;48.412;9.514;2022-09-17T09:00:23;20.60;66.40
12977;DHT22;6553;48.412;9.514;2022-09-17T09:05:45;20.60;66.30
12977;DHT22;6553;48.412;9.514;2022-09-17T09:08:37;20.60;66.40
12977;DHT22;6553;48.412;9.514;2022-09-17T09:11:13;20.60;66.30
12977;DHT22;6553;48.412;9.514;2022-09-17T09:13:45;20.60;66.30
12977;DHT22;6553;48.412;9.514;2022-09-17T09:16:20;20.60;66.30
12977;DHT22;6553;48.412;9.514;2022-09-17T09:18:55;20.60;66.40
12977;DHT22;6553;48.412;9.514;2022-09-17T09:21:28;20.60;66.30
12977;DHT22;6553;48.412;9.514;2022-09-17T09:26:46;20.60;66.40
12977;DHT22;6553;48.412;9.514;2022-09-17T09:30:28;20.60;66.20
12977;DHT22;6553;48.412;9.514;2022-09-17T09:35:40;20.60;66.40
12977;DHT22;6553;48.412;9.514;2022-09-17T09:43:49;20.60;66.40
12977;DHT22;6553;48.412;9.514;2022-09-17T09:56:15;20.70;66.20
12977;DHT22;6553;48.412;9.514;2022-09-17T09:59:06;20.70;66.40
12977;DHT22;6553;48.412;9.514;2022-09-17T10:01:36;20.70;66.20
12977;DHT22;6553;48.412;9.514;2022-09-17T10:04:16;20.70;66.10
12977;DHT22;6553;48.412;9.514;2022-09-17T10:06:48;20.70;66.10
12977;DHT22;6553;48.412;9.514;2022-09-17T10:09:17;20.70;66.00
12977;DHT22;6553;48.412;9.514;2022-09-17T10:12:14;20.70;66.30
12977;DHT22;6553;48.412;9.514;2022-09-17T10:14:43;20.70;66.30
12977;DHT22;6553;48.412;9.514;2022-09-17T10:17:19;20.70;66.40
12977;DHT22;6553;48.412;9.514;2022-09-17T10:22:45;20.70;66.20
12977;DHT22;6553;48.412;9.514;2022-09-17T10:25:27;20.70;66.50
12977;DHT22;6553;48.412;9.514;2022-09-17T10:27:58;20.70;66.50
12977;DHT22;6553;48.412;9.514;2022-09-17T10:30:28;20.70;66.30
12977;DHT22;6553;48.412;9.514;2022-09-17T10:33:20;20.70;66.40
12977;DHT22;6553;48.412;9.514;2022-09-17T10:36:01;20.70;66.30
12977;DHT22;6553;48.412;9.514;2022-09-17T10:38:30;20.70;66.30
12977;DHT22;6553;48.412;9.514;2022-09-17T10:41:09;20.70;66.20
12977;DHT22;6553;48.412;9.514;2022-09-17T10:43:39;20.70;66.50
12977;DHT22;6553;48.412;9.514;2022-09-17T10:46:09;20.70;66.50
12977;DHT22;6553;48.412;9.514;2022-09-17T10:48:45;20.70;66.40
12977;DHT22;6553;48.412;9.514;2022-09-17T10:51:23;20.70;66.30
12977;DHT22;6553;48.412;9.514;2022-09-17T10:54:05;20.70;66.20
12977;DHT22;6553;48.412;9.514;2022-09-17T10:56:43;20.70;66.40
12977;DHT22;6553;48.412;9.514;2022-09-17T11:02:19;20.70;66.40
12977;DHT22;6553;48.412;9.514;2022-09-17T11:07:58;20.70;66.20
12977;DHT22;6553;48.412;9.514;2022-09-17T11:11:05;20.60;66.40
12977;DHT22;6553;48.412;9.514;2022-09-17T11:13:55;20.70;66.30
12977;DHT22;6553;48.412;9.514;2022-09-17T11:16:44;20.70;66.40
12977;DHT22;6553;48.412;9.514;2022-09-17T11:22:54;20.70;66.40
12977;DHT22;6553;48.412;9.514;2022-09-17T11:25:44;20.70;66.50
12977;DHT22;6553;48.412;9.514;2022-09-17T11:34:32;20.70;66.50
12977;DHT22;6553;48.412;9.514;2022-09-17T11:39:52;20.70;66.40
12977;DHT22;6553;48.412;9.514;2022-09-17T11:42:28;20.70;66.50
12977;DHT22;6553;48.412;9.514;2022-09-17T11:45:02;20.70;66.50
12977;DHT22;6553;48.412;9.514;2022-09-17T11:47:37;20.70;66.40
12977;DHT22;6553;48.412;9.514;2022-09-17T11:51:16;20.70;66.40
12977;DHT22;6553;48.412;9.514;2022-09-17T11:53:23;20.70;66.60
12977;DHT22;6553;48.412;9.514;2022-09-17T11:59:14;20.70;66.40
12977;DHT22;6553;48.412;9.514;2022-09-17T12:01:53;20.70;66.40
12977;DHT22;6553;48.412;9.514;2022-09-17T12:04:44;20.70;66.50
12977;DHT22;6553;48.412;9.514;2022-09-17T12:16:14;20.70;66.30
12977;DHT22;6553;48.412;9.514;2022-09-17T12:22:00;20.70;66.50
12977;DHT22;6553;48.412;9.514;2022-09-17T12:24:32;20.70;66.50
12977;DHT22;6553;48.412;9.514;2022-09-17T12:44:05;20.70;66.40
12977;DHT22;6553;48.412;9.514;2022-09-17T12:53:13;20.70;66.50
12977;DHT22;6553;48.412;9.514;2022-09-17T12:56:08;20.70;66.40
12977;DHT22;6553;48.412;9.514;2022-09-17T12:58:56;20.70;66.20
12977;DHT22;6553;48.412;9.514;2022-09-17T13:01:53;20.70;66.20
12977;DHT22;6553;48.412;9.514;2022-09-17T13:24:20;20.70;66.10
12977;DHT22;6553;48.412;9.514;2022-09-17T13:26:51;20.70;66.20
12977;DHT22;6553;48.412;9.514;2022-09-17T13:37:32;20.70;66.40
12977;DHT22;6553;48.412;9.514;2022-09-17T13:40:00;20.70;66.20
12977;DHT22;6553;48.412;9.514;2022-09-17T13:42:41;20.70;66.00
12977;DHT22;6553;48.412;9.514;2022-09-17T13:45:11;20.70;66.10
12977;DHT22;6553;48.412;9.514;2022-09-17T13:48:02;20.70;66.10
12977;DHT22;6553;48.412;9.514;2022-09-17T13:50:40;20.70;66.10
12977;DHT22;6553;48.412;9.514;2022-09-17T13:53:17;20.70;66.20
12977;DHT22;6553;48.412;9.514;2022-09-17T13:55:53;20.60;66.20
12977;DHT22;6553;48.412;9.514;2022-09-17T13:58:33;20.70;66.20
12977;DHT22;6553;48.412;9.514;2022-09-17T14:01:11;20.70;66.20
12977;DHT22;6553;48.412;9.514;2022-09-17T14:19:32;20.60;66.50
12977;DHT22;6553;48.412;9.514;2022-09-17T14:27:27;20.60;66.20
12977;DHT22;6553;48.412;9.514;2022-09-17T14:30:21;20.70;66.50
12977;DHT22;6553;48.412;9.514;2022-09-17T14:35:59;20.70;66.50
12977;DHT22;6553;48.412;9.514;2022-09-17T14:38:39;20.60;66.40
12977;DHT22;6553;48.412;9.514;2022-09-17T14:44:01;20.60;66.10
12977;DHT22;6553;48.412;9.514;2022-09-17T14:46:35;20.60;66.20
12977;DHT22;6553;48.412;9.514;2022-09-17T14:51:54;20.60;66.20
12977;DHT22;6553;48.412;9.514;2022-09-17T14:57:02;20.70;66.30
12977;DHT22;6553;48.412;9.514;2022-09-17T14:59:49;20.70;66.20
12977;DHT22;6553;48.412;9.514;2022-09-17T15:04:58;20.70;66.30
12977;DHT22;6553;48.412;9.514;2022-09-17T15:07:25;20.60;66.10
12977;DHT22;6553;48.412;9.514;2022-09-17T15:09:51;20.60;66.40
12977;DHT22;6553;48.412;9.514;2022-09-17T15:12:27;20.60;66.30
12977;DHT22;6553;48.412;9.514;2022-09-17T15:14:55;20.60;66.10
12977;DHT22;6553;48.412;9.514;2022-09-17T15:17:22;20.60;66.40
12977;DHT22;6553;48.412;9.514;2022-09-17T15:19:51;20.60;66.10
12977;DHT22;6553;48.412;9.514;2022-09-17T15:22:30;20.60;66.20
12977;DHT22;6553;48.412;9.514;2022-09-17T15:25:09;20.60;66.20
12977;DHT22;6553;48.412;9.514;2022-09-17T15:27:44;20.60;66.20
12977;DHT22;6553;48.412;9.514;2022-09-17T15:30:22;20.60;66.90
12977;DHT22;6553;48.412;9.514;2022-09-17T15:32:59;20.60;66.30
12977;DHT22;6553;48.412;9.514;2022-09-17T15:35:26;20.60;66.30
12977;DHT22;6553;48.412;9.514;2022-09-17T15:37:59;20.60;66.40
12977;DHT22;6553;48.412;9.514;2022-09-17T15:40:35;20.60;66.30
12977;DHT22;6553;48.412;9.514;2022-09-17T15:43:31;20.60;66.30
12977;DHT22;6553;48.412;9.514;2022-09-17T15:46:20;20.60;66.00
12977;DHT22;6553;48.412;9.514;2022-09-17T15:48:56;20.60;66.20
12977;DHT22;6553;48.412;9.514;2022-09-17T15:51:30;20.60;67.00
12977;DHT22;6553;48.412;9.514;2022-09-17T15:54:00;20.60;66.20
12977;DHT22;6553;48.412;9.514;2022-09-17T15:56:32;20.60;66.10
12977;DHT22;6553;48.412;9.514;2022-09-17T15:59:04;20.60;66.40
12977;DHT22;6553;48.412;9.514;2022-09-17T16:09:47;20.60;66.30
12977;DHT22;6553;48.412;9.514;2022-09-17T16:12:23;20.60;66.20
12977;DHT22;6553;48.412;9.514;2022-09-17T16:14:56;20.50;66.10
12977;DHT22;6553;48.412;9.514;2022-09-17T16:17:43;20.60;66.30
12977;DHT22;6553;48.412;9.514;2022-09-17T16:20:13;20.60;66.40
12977;DHT22;6553;48.412;9.514;2022-09-17T16:22:40;20.50;66.10
12977;DHT22;6553;48.412;9.514;2022-09-17T16:25:07;20.60;66.30
12977;DHT22;6553;48.412;9.514;2022-09-17T16:27:42;20.60;66.30
12977;DHT22;6553;48.412;9.514;2022-09-17T16:30:15;20.50;66.30
12977;DHT22;6553;48.412;9.514;2022-09-17T16:32:43;20.50;66.20
12977;DHT22;6553;48.412;9.514;2022-09-17T16:35:14;20.50;66.20
12977;DHT22;6553;48.412;9.514;2022-09-17T16:37:42;20.50;66.10
12977;DHT22;6553;48.412;9.514;2022-09-17T16:40:10;20.50;66.10
12977;DHT22;6553;48.412;9.514;2022-09-17T16:42:38;20.50;66.30
12977;DHT22;6553;48.412;9.514;2022-09-17T16:45:05;20.50;66.30
12977;DHT22;6553;48.412;9.514;2022-09-17T16:47:36;20.50;66.30
12977;DHT22;6553;48.412;9.514;2022-09-17T16:50:12;20.50;66.20
12977;DHT22;6553;48.412;9.514;2022-09-17T16:52:39;20.50;66.30
12977;DHT22;6553;48.412;9.514;2022-09-17T16:55:06;20.50;66.20
12977;DHT22;6553;48.412;9.514;2022-09-17T16:57:33;20.50;66.30
12977;DHT22;6553;48.412;9.514;2022-09-17T16:59:59;20.50;66.30
12977;DHT22;6553;48.412;9.514;2022-09-17T17:02:25;20.50;66.30
12977;DHT22;6553;48.412;9.514;2022-09-17T17:04:50;20.50;66.40
12977;DHT22;6553;48.412;9.514;2022-09-17T17:07:16;20.50;66.30
12977;DHT22;6553;48.412;9.514;2022-09-17T17:09:42;20.50;66.30
12977;DHT22;6553;48.412;9.514;2022-09-17T17:12:08;20.50;66.30
12977;DHT22;6553;48.412;9.514;2022-09-17T17:14:34;20.50;66.40
12977;DHT22;6553;48.412;9.514;2022-09-17T17:17:00;20.50;66.30
12977;DHT22;6553;48.412;9.514;2022-09-17T17:19:26;20.50;66.40
12977;DHT22;6553;48.412;9.514;2022-09-17T17:21:52;20.50;66.30
12977;DHT22;6553;48.412;9.514;2022-09-17T17:24:19;20.40;66.20
12977;DHT22;6553;48.412;9.514;2022-09-17T17:26:46;20.50;66.30
12977;DHT22;6553;48.412;9.514;2022-09-17T17:29:13;20.50;66.30
12977;DHT22;6553;48.412;9.514;2022-09-17T17:31:39;20.50;66.40
12977;DHT22;6553;48.412;9.514;2022-09-17T17:34:05;20.50;66.40
12977;DHT22;6553;48.412;9.514;2022-09-17T17:36:31;20.40;66.30
12977;DHT22;6553;48.412;9.514;2022-09-17T17:38:58;20.40;66.40
12977;DHT22;6553;48.412;9.514;2022-09-17T17:41:24;20.40;66.40
12977;DHT22;6553;48.412;9.514;2022-09-17T17:43:55;20.40;66.30
12977;DHT22;6553;48.412;9.514;2022-09-17T17:46:22;20.40;66.30
12977;DHT22;6553;48.412;9.514;2022-09-17T17:48:49;20.40;66.30
12977;DHT22;6553;48.412;9.514;2022-09-17T17:51:15;20.40;66.50
12977;DHT22;6553;48.412;9.514;2022-09-17T17:53:48;20.40;66.40
12977;DHT22;6553;48.412;9.514;2022-09-17T17:56:15;20.40;66.50
12977;DHT22;6553;48.412;9.514;2022-09-17T17:58:41;20.40;66.50
12977;DHT22;6553;48.412;9.514;2022-09-17T18:01:12;20.40;66.40
12977;DHT22;6553;48.412;9.514;2022-09-17T18:03:42;20.40;66.50
12977;DHT22;6553;48.412;9.514;2022-09-17T18:06:09;20.40;66.30
12977;DHT22;6553;48.412;9.514;2022-09-17T18:08:36;20.40;66.40
12977;DHT22;6553;48.412;9.514;2022-09-17T18:11:04;20.40;66.40
12977;DHT22;6553;48.412;9.514;2022-09-17T18:13:33;20.40;66.40
12977;DHT22;6553;48.412;9.514;2022-09-17T18:16:00;20.40;66.30
12977;DHT22;6553;48.412;9.514;2022-09-17T18:18:35;20.40;66.50
12977;DHT22;6553;48.412;9.514;2022-09-17T18:21:05;20.40;66.50
12977;DHT22;6553;48.412;9.514;2022-09-17T18:23:37;20.40;66.50
12977;DHT22;6553;48.412;9.514;2022-09-17T18:26:05;20.40;66.40
12977;DHT22;6553;48.412;9.514;2022-09-17T18:28:34;20.40;66.60
12977;DHT22;6553;48.412;9.514;2022-09-17T18:31:08;20.40;66.50
12977;DHT22;6553;48.412;9.514;2022-09-17T18:33:42;20.40;66.60
12977;DHT22;6553;48.412;9.514;2022-09-17T18:36:09;20.40;66.50
12977;DHT22;6553;48.412;9.514;2022-09-17T18:38:35;20.40;66.50
12977;DHT22;6553;48.412;9.514;2022-09-17T18:41:10;20.40;66.50
12977;DHT22;6553;48.412;9.514;2022-09-17T18:43:36;20.40;66.60
12977;DHT22;6553;48.412;9.514;2022-09-17T18:46:03;20.40;66.50
12977;DHT22;6553;48.412;9.514;2022-09-17T18:48:30;20.40;66.50
12977;DHT22;6553;48.412;9.514;2022-09-17T18:51:10;20.40;66.50
12977;DHT22;6553;48.412;9.514;2022-09-17T18:53:37;20.40;66.50
12977;DHT22;6553;48.412;9.514;2022-09-17T18:56:09;20.40;66.50
12977;DHT22;6553;48.412;9.514;2022-09-17T18:58:39;20.40;66.60
12977;DHT22;6553;48.412;9.514;2022-09-17T19:01:05;20.40;66.60
12977;DHT22;6553;48.412;9.514;2022-09-17T19:03:32;20.40;66.60
12977;DHT22;6553;48.412;9.514;2022-09-17T19:05:59;20.40;66.70
12977;DHT22;6553;48.412;9.514;2022-09-17T19:08:26;20.40;67.00
12977;DHT22;6553;48.412;9.514;2022-09-17T19:10:52;20.40;66.60
12977;DHT22;6553;48.412;9.514;2022-09-17T19:13:18;20.40;66.60
12977;DHT22;6553;48.412;9.514;2022-09-17T19:15:43;20.40;66.60
12977;DHT22;6553;48.412;9.514;2022-09-17T19:18:09;20.40;66.60
12977;DHT22;6553;48.412;9.514;2022-09-17T19:20:35;20.40;66.60
12977;DHT22;6553;48.412;9.514;2022-09-17T19:23:06;20.40;66.50
12977;DHT22;6553;48.412;9.514;2022-09-17T19:25:36;20.40;66.60
12977;DHT22;6553;48.412;9.514;2022-09-17T19:28:03;20.40;66.70
12977;DHT22;6553;48.412;9.514;2022-09-17T19:30:30;20.40;66.70
12977;DHT22;6553;48.412;9.514;2022-09-17T19:32:59;20.40;66.50
12977;DHT22;6553;48.412;9.514;2022-09-17T19:35:25;20.30;66.50
12977;DHT22;6553;48.412;9.514;2022-09-17T19:37:52;20.40;66.60
12977;DHT22;6553;48.412;9.514;2022-09-17T19:40:21;20.40;66.70
12977;DHT22;6553;48.412;9.514;2022-09-17T19:42:52;20.40;66.70